Time;durP1;ratioP1;P1;durP2;ratioP2;P2;SDS_P1;SDS_P2;PMS_P1;PMS_P2;Temp;Humidity;BMP_temperature;BMP_pressure;BME280_temperature;BME280_humidity;BME280_pressure;Samples;Min_cycle;Max_cycle;Signal;HPM_P1;HPM_P2
2023/07/20 00:00:34;;;;;;;8.40;8.20;;;17.70;99.90;;;;;;6231290;22;20206;-87
2023/07/20 00:03:18;;;;;;;7.97;7.78;;;17.80;99.90;;;;;;6251777;22;20179;-85
2023/07/20 00:05:46;;;;;;;7.82;7.63;;;17.80;99.90;;;;;;6251678;22;20182;-87
2023/07/20 00:08:13;;;;;;;8.60;8.40;;;17.70;99.90;;;;;;6250272;22;20234;-86
2023/07/20 00:10:43;;;;;;;8.35;8.15;;;17.70;99.90;;;;;;6231966;23;20199;-86
2023/07/20 00:13:13;;;;;;;8.50;8.30;;;17.70;99.90;;;;;;6227805;23;20289;-87
2023/07/20 00:15:41;;;;;;;8.63;8.43;;;17.60;99.90;;;;;;6227384;22;20211;-87
2023/07/20 00:18:08;;;;;;;8.27;8.07;;;17.60;99.90;;;;;;6231136;22;20297;-86
2023/07/20 00:20:35;;;;;;;8.32;8.13;;;17.60;99.90;;;;;;6236711;23;20198;-87
2023/07/20 00:23:03;;;;;;;8.27;8.07;;;17.60;99.90;;;;;;6244777;23;20270;-85
2023/07/20 00:25:33;;;;;;;8.05;7.85;;;17.70;99.90;;;;;;6244679;22;20211;-85
2023/07/20 00:28:03;;;;;;;8.20;8.00;;;17.70;99.90;;;;;;6240800;22;20195;-87
2023/07/20 00:30:30;;;;;;;8.10;7.90;;;17.70;99.90;;;;;;6227410;23;20198;-86
2023/07/20 00:32:57;;;;;;;8.18;7.97;;;17.80;99.90;;;;;;6229960;22;20191;-87
2023/07/20 00:35:24;;;;;;;8.32;8.13;;;17.80;99.90;;;;;;6231748;22;20238;-85
2023/07/20 00:37:52;;;;;;;8.20;8.00;;;17.80;99.90;;;;;;6231811;23;20230;-85
2023/07/20 00:40:19;;;;;;;8.10;7.90;;;17.80;99.90;;;;;;6229986;23;20222;-85
2023/07/20 00:42:46;;;;;;;8.07;7.88;;;17.80;99.90;;;;;;6229379;23;20213;-85
2023/07/20 00:45:16;;;;;;;7.93;7.72;;;17.80;99.90;;;;;;6228872;22;20234;-86
2023/07/20 00:47:44;;;;;;;7.90;7.70;;;17.80;99.90;;;;;;6229144;23;20258;-86
2023/07/20 00:50:12;;;;;;;7.90;7.70;;;17.80;99.90;;;;;;6228670;23;20233;-85
2023/07/20 00:52:40;;;;;;;8.02;7.82;;;17.80;99.90;;;;;;6228312;23;20198;-85
2023/07/20 00:55:10;;;;;;;8.10;7.90;;;17.80;99.90;;;;;;6228608;22;20207;-85
2023/07/20 00:57:38;;;;;;;7.93;7.72;;;17.80;99.90;;;;;;6228669;22;20197;-85
2023/07/20 01:00:07;;;;;;;8.20;8.00;;;17.80;99.90;;;;;;6228332;22;20273;-85
2023/07/20 01:02:36;;;;;;;8.05;7.85;;;17.80;99.90;;;;;;6228456;22;20206;-86
2023/07/20 01:05:06;;;;;;;8.20;8.00;;;17.80;99.90;;;;;;6228473;22;20191;-85
2023/07/20 01:07:38;;;;;;;7.90;7.70;;;17.80;99.90;;;;;;6229113;23;20203;-86
2023/07/20 01:10:15;;;;;;;7.78;7.57;;;17.70;99.90;;;;;;6229138;22;20195;-85
2023/07/20 01:12:44;;;;;;;7.97;7.78;;;17.70;99.90;;;;;;6235107;22;20186;-85
2023/07/20 01:15:12;;;;;;;8.18;7.97;;;17.70;99.90;;;;;;6232386;22;20230;-85
2023/07/20 01:17:45;;;;;;;7.72;7.53;;;17.70;99.90;;;;;;6230928;22;20199;-86
2023/07/20 01:20:17;;;;;;;8.00;7.80;;;17.60;99.90;;;;;;6229987;23;20273;-85
2023/07/20 01:23:30;;;;;;;7.93;7.72;;;17.50;99.90;;;;;;6228546;22;20230;-86
2023/07/20 01:26:13;;;;;;;7.80;7.60;;;17.40;99.90;;;;;;6228631;22;20268;-85
2023/07/20 01:29:13;;;;;;;7.78;7.57;;;17.40;99.90;;;;;;6238639;23;20191;-86
2023/07/20 01:31:44;;;;;;;7.63;7.43;;;17.40;99.90;;;;;;6237595;22;20219;-84
2023/07/20 01:34:16;;;;;;;7.53;7.32;;;17.40;99.90;;;;;;6239079;22;20183;-86
2023/07/20 01:36:44;;;;;;;7.82;7.63;;;17.40;99.90;;;;;;6229818;22;20194;-86
2023/07/20 01:39:12;;;;;;;7.85;7.65;;;17.40;99.90;;;;;;6229677;22;20199;-86
2023/07/20 01:41:40;;;;;;;7.68;7.47;;;17.40;99.90;;;;;;6229122;23;20226;-86
2023/07/20 01:44:07;;;;;;;7.60;7.40;;;17.50;99.90;;;;;;6228657;22;20258;-85
2023/07/20 01:46:35;;;;;;;7.60;7.40;;;17.50;99.90;;;;;;6229307;22;20199;-85
2023/07/20 01:49:04;;;;;;;7.50;7.30;;;17.40;99.90;;;;;;6234116;22;20254;-85
2023/07/20 01:51:32;;;;;;;7.72;7.53;;;17.40;99.90;;;;;;6227789;22;20209;-85
2023/07/20 01:53:59;;;;;;;7.60;7.40;;;17.50;99.90;;;;;;6228902;22;20238;-85
2023/07/20 01:56:27;;;;;;;8.20;8.00;;;17.40;99.90;;;;;;6228681;23;20203;-86
2023/07/20 01:58:54;;;;;;;8.10;7.90;;;17.40;99.90;;;;;;6228689;23;20238;-85
2023/07/20 02:01:22;;;;;;;7.82;7.63;;;17.40;99.90;;;;;;6229021;22;20202;-86
2023/07/20 02:03:49;;;;;;;7.72;7.53;;;17.40;99.90;;;;;;6229263;23;20206;-86
2023/07/20 02:06:18;;;;;;;8.02;7.82;;;17.40;99.90;;;;;;6229681;22;20199;-86
2023/07/20 02:08:51;;;;;;;7.97;7.78;;;17.40;99.90;;;;;;6245171;22;20190;-86
2023/07/20 02:11:19;;;;;;;7.97;7.78;;;17.40;99.90;;;;;;6247103;22;20222;-86
2023/07/20 02:13:46;;;;;;;8.40;8.20;;;17.50;99.90;;;;;;6246674;22;20230;-86
2023/07/20 02:16:13;;;;;;;8.40;8.20;;;17.50;99.90;;;;;;6247052;22;20199;-85
2023/07/20 02:18:40;;;;;;;8.48;8.27;;;17.50;99.90;;;;;;6249357;22;20194;-86
2023/07/20 02:21:08;;;;;;;8.10;7.90;;;17.60;99.90;;;;;;6249531;22;20234;-85
2023/07/20 02:23:37;;;;;;;8.25;8.05;;;17.50;99.90;;;;;;6248446;22;20254;-87
2023/07/20 02:26:04;;;;;;;8.35;8.15;;;17.50;99.90;;;;;;6228415;22;20218;-80
2023/07/20 02:28:31;;;;;;;8.50;8.30;;;17.60;99.90;;;;;;6225773;23;20259;-81
2023/07/20 02:31:00;;;;;;;8.30;8.10;;;17.60;99.90;;;;;;6225563;22;20199;-81
2023/07/20 02:33:27;;;;;;;8.30;8.10;;;17.70;99.90;;;;;;6226011;23;20203;-81
2023/07/20 02:35:55;;;;;;;8.20;8.00;;;17.70;99.90;;;;;;6225373;22;20207;-81
2023/07/20 02:38:22;;;;;;;8.50;8.30;;;17.70;99.90;;;;;;6225701;22;20206;-80
2023/07/20 02:40:51;;;;;;;8.20;8.00;;;17.70;99.90;;;;;;6226096;22;20199;-81
2023/07/20 02:43:17;;;;;;;7.95;7.75;;;17.70;99.90;;;;;;6226859;22;20208;-81
2023/07/20 02:45:44;;;;;;;8.00;7.80;;;17.70;99.90;;;;;;6224837;22;20294;-81
2023/07/20 02:48:12;;;;;;;8.10;7.90;;;17.80;99.90;;;;;;6225266;22;20250;-81
2023/07/20 02:50:39;;;;;;;7.90;7.70;;;17.80;99.90;;;;;;6225645;22;20327;-81
2023/07/20 02:53:06;;;;;;;7.85;7.65;;;17.70;99.90;;;;;;6225898;23;20203;-82
2023/07/20 02:55:34;;;;;;;7.72;7.53;;;17.80;99.90;;;;;;6225140;22;20214;-81
2023/07/20 02:58:07;;;;;;;7.50;7.30;;;17.80;99.90;;;;;;6225354;23;20231;-81
2023/07/20 03:00:35;;;;;;;7.90;7.70;;;17.80;99.90;;;;;;6229119;22;20257;-81
2023/07/20 03:03:02;;;;;;;7.82;7.63;;;17.80;99.90;;;;;;6226536;23;20267;-81
2023/07/20 03:05:29;;;;;;;7.70;7.50;;;17.80;99.90;;;;;;6226339;22;20234;-81
2023/07/20 03:08:02;;;;;;;7.68;7.47;;;17.70;99.90;;;;;;6226941;22;20198;-80
2023/07/20 03:10:29;;;;;;;7.75;7.55;;;17.70;99.90;;;;;;6232334;23;20193;-81
2023/07/20 03:12:56;;;;;;;7.72;7.53;;;17.70;99.90;;;;;;6231671;23;20195;-81
2023/07/20 03:15:25;;;;;;;8.00;7.80;;;17.70;99.90;;;;;;6230596;22;20247;-81
2023/07/20 03:17:55;;;;;;;8.10;7.90;;;17.70;99.90;;;;;;6228951;23;20194;-81
2023/07/20 03:20:23;;;;;;;8.10;7.90;;;17.60;99.90;;;;;;6228225;23;20202;-81
2023/07/20 03:22:58;;;;;;;8.10;7.90;;;17.60;99.90;;;;;;6226995;23;20238;-82
2023/07/20 03:25:25;;;;;;;8.20;8.00;;;17.50;99.90;;;;;;6226723;22;20253;-82
2023/07/20 03:27:52;;;;;;;8.40;8.20;;;17.50;99.90;;;;;;6227281;22;20191;-80
2023/07/20 03:30:20;;;;;;;8.25;8.05;;;17.50;99.90;;;;;;6227238;22;20201;-82
2023/07/20 03:32:50;;;;;;;8.10;7.90;;;17.40;99.90;;;;;;6228031;23;20238;-81
2023/07/20 03:35:23;;;;;;;8.15;7.95;;;17.40;99.90;;;;;;6227854;22;20234;-81
2023/07/20 03:37:50;;;;;;;8.10;7.90;;;17.40;99.90;;;;;;6229343;22;20203;-82
2023/07/20 03:40:22;;;;;;;8.10;7.90;;;17.40;99.90;;;;;;6228079;22;20195;-81
2023/07/20 03:42:52;;;;;;;8.35;8.15;;;17.40;99.90;;;;;;6227964;23;20199;-81
2023/07/20 03:45:27;;;;;;;8.30;8.10;;;17.40;99.90;;;;;;6226841;22;20207;-81
2023/07/20 03:47:56;;;;;;;8.10;7.90;;;17.40;99.90;;;;;;6226948;22;20191;-82
2023/07/20 03:50:24;;;;;;;8.60;8.40;;;17.40;99.90;;;;;;6227530;22;20226;-81
2023/07/20 03:52:59;;;;;;;8.50;8.30;;;17.30;99.90;;;;;;6227266;22;20290;-81
2023/07/20 03:55:28;;;;;;;8.38;8.18;;;17.30;99.90;;;;;;6227461;22;20190;-81
2023/07/20 03:57:55;;;;;;;8.57;8.38;;;17.40;99.90;;;;;;6228136;23;20195;-82
2023/07/20 04:00:23;;;;;;;8.30;8.10;;;17.40;99.90;;;;;;6227152;23;20208;-82
2023/07/20 04:03:18;;;;;;;8.20;8.00;;;17.40;99.90;;;;;;6230623;22;20198;-82
2023/07/20 04:05:46;;;;;;;8.40;8.20;;;17.40;99.90;;;;;;6228179;22;20215;-82
2023/07/20 04:08:16;;;;;;;8.30;8.10;;;17.40;99.90;;;;;;6229886;22;20250;-82
2023/07/20 04:10:54;;;;;;;8.43;8.23;;;17.30;99.90;;;;;;6229388;22;20199;-82
2023/07/20 04:13:23;;;;;;;8.40;8.20;;;17.30;99.90;;;;;;6228005;23;20218;-82
2023/07/20 04:15:58;;;;;;;8.38;8.18;;;17.30;99.90;;;;;;6227165;22;20203;-82
2023/07/20 04:18:31;;;;;;;8.27;8.07;;;17.30;99.90;;;;;;6227794;22;20249;-82
2023/07/20 04:20:58;;;;;;;8.38;8.18;;;17.30;99.90;;;;;;6227088;22;20278;-82
2023/07/20 04:23:26;;;;;;;8.80;8.60;;;17.30;99.90;;;;;;6226967;23;20199;-83
2023/07/20 04:25:54;;;;;;;8.80;8.60;;;17.30;99.90;;;;;;6228254;22;20195;-82
2023/07/20 04:28:21;;;;;;;8.70;8.50;;;17.40;99.90;;;;;;6230379;23;20198;-83
2023/07/20 04:30:51;;;;;;;8.70;8.50;;;17.40;99.90;;;;;;6228678;22;20190;-83
2023/07/20 04:33:18;;;;;;;8.60;8.40;;;17.40;99.90;;;;;;6229283;23;20198;-83
2023/07/20 04:35:53;;;;;;;8.52;8.32;;;17.50;99.90;;;;;;6227787;22;20203;-82
2023/07/20 04:38:21;;;;;;;8.68;8.48;;;17.50;99.90;;;;;;6228990;23;20201;-82
2023/07/20 04:40:50;;;;;;;8.48;8.27;;;17.50;99.90;;;;;;6229907;23;20195;-82
2023/07/20 04:43:28;;;;;;;8.90;8.70;;;17.50;99.90;;;;;;6232423;23;20294;-81
2023/07/20 04:45:57;;;;;;;8.90;8.70;;;17.50;99.90;;;;;;6230261;22;20249;-82
2023/07/20 04:51:43;;;;;;;8.90;8.68;;;17.50;99.90;;;;;;6228392;22;20214;-81
2023/07/20 04:54:17;;;;;;;9.20;8.90;;;17.50;99.90;;;;;;6228647;22;20278;-81
2023/07/20 04:56:47;;;;;;;9.15;8.85;;;17.50;99.90;;;;;;6228867;22;20278;-81
2023/07/20 04:59:14;;;;;;;9.20;8.90;;;17.50;99.90;;;;;;6227701;22;20199;-82
2023/07/20 05:01:49;;;;;;;9.20;8.90;;;17.50;99.90;;;;;;6228292;22;20203;-81
2023/07/20 05:04:21;;;;;;;9.10;8.80;;;17.60;99.90;;;;;;6228787;22;20194;-81
2023/07/20 05:06:58;;;;;;;9.10;8.80;;;17.60;99.90;;;;;;6228385;23;20202;-81
2023/07/20 05:09:50;;;;;;;9.32;9.02;;;17.70;99.90;;;;;;6228069;23;20194;-82
2023/07/20 05:12:20;;;;;;;9.50;9.20;;;17.70;99.90;;;;;;6228900;22;20199;-82
2023/07/20 05:14:56;;;;;;;9.50;9.20;;;17.70;99.90;;;;;;6228755;22;20213;-82
2023/07/20 05:17:24;;;;;;;9.65;9.35;;;17.70;99.90;;;;;;6228342;23;20186;-82
2023/07/20 05:19:53;;;;;;;9.40;9.10;;;17.70;99.90;;;;;;6228351;23;20202;-82
2023/07/20 05:22:25;;;;;;;9.30;9.00;;;17.60;99.90;;;;;;6228563;22;20195;-82
2023/07/20 05:24:53;;;;;;;9.60;9.30;;;17.60;99.90;;;;;;6228167;22;20269;-80
2023/07/20 05:27:22;;;;;;;9.57;9.27;;;17.60;99.90;;;;;;6228934;23;20195;-81
2023/07/20 05:29:49;;;;;;;9.55;9.25;;;17.60;99.90;;;;;;6228782;23;20194;-81
2023/07/20 05:32:17;;;;;;;9.50;9.20;;;17.60;99.90;;;;;;6227598;22;20199;-81
2023/07/20 05:34:44;;;;;;;9.73;9.43;;;17.70;99.90;;;;;;6229403;23;20198;-81
2023/07/20 05:37:14;;;;;;;9.88;9.57;;;17.80;99.90;;;;;;6226898;22;20199;-81
2023/07/20 05:39:54;;;;;;;9.77;9.48;;;17.80;99.90;;;;;;6228631;23;20199;-81
2023/07/20 05:42:24;;;;;;;9.82;9.52;;;17.90;99.90;;;;;;6226590;22;20199;-81
2023/07/20 05:44:52;;;;;;;10.00;9.70;;;18.00;99.90;;;;;;6226845;22;20207;-81
2023/07/20 05:47:22;;;;;;;9.63;9.32;;;18.10;99.90;;;;;;6227556;23;20195;-81
2023/07/20 05:49:53;;;;;;;10.00;9.70;;;18.10;99.90;;;;;;6227101;23;20195;-82
2023/07/20 05:52:20;;;;;;;9.70;9.40;;;18.00;99.90;;;;;;6227563;22;20206;-81
2023/07/20 05:54:49;;;;;;;9.95;9.65;;;18.10;99.90;;;;;;6227667;22;20230;-81
2023/07/20 05:57:16;;;;;;;9.80;9.50;;;18.10;99.90;;;;;;6227487;23;20233;-81
2023/07/20 05:59:44;;;;;;;10.00;9.70;;;18.30;99.90;;;;;;6227042;23;20198;-81
2023/07/20 06:02:11;;;;;;;9.85;9.55;;;18.30;99.90;;;;;;6227065;23;20245;-81
2023/07/20 06:04:43;;;;;;;10.00;9.70;;;18.30;99.90;;;;;;6227507;22;20295;-81
2023/07/20 06:07:10;;;;;;;10.13;9.82;;;18.20;99.90;;;;;;6226869;23;20199;-81
2023/07/20 06:09:40;;;;;;;10.35;10.05;;;18.10;99.90;;;;;;6226755;23;20202;-81
2023/07/20 06:12:15;;;;;;;10.32;10.02;;;18.10;99.90;;;;;;6226822;23;20226;-81
2023/07/20 06:14:46;;;;;;;10.20;9.90;;;18.20;99.90;;;;;;6226897;22;20209;-81
2023/07/20 06:17:19;;;;;;;10.30;10.00;;;18.20;99.90;;;;;;6226313;23;20277;-78
2023/07/20 06:19:46;;;;;;;10.10;9.80;;;18.30;99.90;;;;;;6225276;23;20198;-79
2023/07/20 06:22:16;;;;;;;10.20;9.90;;;18.50;99.90;;;;;;6225486;22;20195;-78
2023/07/20 06:24:45;;;;;;;10.10;9.80;;;18.50;99.90;;;;;;6224766;22;20234;-79
2023/07/20 06:27:14;;;;;;;10.48;10.18;;;18.50;99.90;;;;;;6225732;22;20211;-79
2023/07/20 06:29:46;;;;;;;10.55;10.25;;;18.60;99.90;;;;;;6227071;22;20199;-80
2023/07/20 06:32:14;;;;;;;10.55;10.25;;;18.70;99.90;;;;;;6229970;22;20198;-78
2023/07/20 06:34:41;;;;;;;10.50;10.20;;;18.80;99.90;;;;;;6227106;23;20219;-79
2023/07/20 06:37:09;;;;;;;10.73;10.43;;;18.80;99.90;;;;;;6227371;23;20203;-79
2023/07/20 06:39:36;;;;;;;10.60;10.30;;;18.90;99.90;;;;;;6225831;23;20199;-80
2023/07/20 06:42:04;;;;;;;10.65;10.35;;;19.10;99.90;;;;;;6225611;23;20219;-79
2023/07/20 06:44:32;;;;;;;10.60;10.30;;;19.10;99.90;;;;;;6226948;22;20227;-80
2023/07/20 06:47:00;;;;;;;10.60;10.30;;;19.20;99.90;;;;;;6227553;23;20205;-80
2023/07/20 06:49:27;;;;;;;10.60;10.30;;;19.30;99.90;;;;;;6226838;23;20213;-78
2023/07/20 06:51:54;;;;;;;10.73;10.43;;;19.50;99.90;;;;;;6226843;22;20476;-79
2023/07/20 06:54:21;;;;;;;10.50;10.20;;;19.60;99.90;;;;;;6229780;22;20191;-80
2023/07/20 06:56:48;;;;;;;10.60;10.30;;;19.60;99.90;;;;;;6234503;22;20199;-79
2023/07/20 06:59:15;;;;;;;10.57;10.27;;;19.80;99.90;;;;;;6236644;23;20255;-79
2023/07/20 07:01:44;;;;;;;10.82;10.52;;;19.90;99.90;;;;;;6227740;23;20203;-79
2023/07/20 07:04:11;;;;;;;11.07;10.77;;;20.10;99.90;;;;;;6225988;23;20213;-80
2023/07/20 07:06:38;;;;;;;10.95;10.65;;;20.20;99.90;;;;;;6226728;22;20215;-80
2023/07/20 07:09:05;;;;;;;10.98;10.68;;;20.40;99.90;;;;;;6227084;23;20278;-79
2023/07/20 07:11:32;;;;;;;11.02;10.73;;;20.60;99.90;;;;;;6225875;23;20355;-79
2023/07/20 07:13:59;;;;;;;10.70;10.40;;;20.50;99.90;;;;;;6224902;23;20218;-78
2023/07/20 07:16:26;;;;;;;10.80;10.50;;;20.50;99.90;;;;;;6225384;22;20222;-79
2023/07/20 07:18:55;;;;;;;10.70;10.40;;;20.30;99.90;;;;;;6225115;23;20262;-78
2023/07/20 07:21:22;;;;;;;10.60;10.30;;;20.30;99.90;;;;;;6224881;23;20285;-78
2023/07/20 07:23:49;;;;;;;10.40;10.10;;;20.30;99.90;;;;;;6227644;23;20213;-80
2023/07/20 07:26:16;;;;;;;10.48;10.18;;;20.30;99.90;;;;;;6234178;22;20222;-79
2023/07/20 07:28:43;;;;;;;10.63;10.32;;;20.30;99.90;;;;;;6236542;23;20207;-80
2023/07/20 07:31:10;;;;;;;10.30;10.00;;;20.30;99.90;;;;;;6234249;23;20260;-80
2023/07/20 07:33:37;;;;;;;10.40;10.10;;;20.30;99.90;;;;;;6233724;23;20274;-79
2023/07/20 07:36:06;;;;;;;10.20;9.90;;;20.40;99.90;;;;;;6233734;22;20246;-80
2023/07/20 07:38:33;;;;;;;10.20;9.90;;;20.30;99.90;;;;;;6234537;23;20201;-81
2023/07/20 07:41:00;;;;;;;10.00;9.70;;;20.30;99.90;;;;;;6240335;23;20209;-80
2023/07/20 07:43:28;;;;;;;10.30;10.00;;;20.30;99.90;;;;;;6235004;22;20195;-80
2023/07/20 07:45:57;;;;;;;10.40;10.10;;;20.40;99.90;;;;;;6238382;22;20229;-80
2023/07/20 07:48:25;;;;;;;10.15;9.85;;;20.50;99.90;;;;;;6247032;22;20183;-80
2023/07/20 07:50:52;;;;;;;10.50;10.20;;;20.60;99.90;;;;;;6246564;22;20200;-80
2023/07/20 07:53:20;;;;;;;10.35;10.05;;;20.50;99.90;;;;;;6246385;23;20191;-81
2023/07/20 07:55:49;;;;;;;10.30;10.00;;;20.60;99.90;;;;;;6245436;22;20195;-81
2023/07/20 07:58:16;;;;;;;10.55;10.25;;;20.70;99.90;;;;;;6247084;23;20207;-80
2023/07/20 08:00:44;;;;;;;9.93;9.63;;;20.80;99.90;;;;;;6246064;23;20202;-80
2023/07/20 08:03:11;;;;;;;10.20;9.90;;;20.80;99.90;;;;;;6240825;23;20202;-80
2023/07/20 08:05:38;;;;;;;10.60;10.30;;;20.70;99.90;;;;;;6243581;22;20214;-79
2023/07/20 08:08:05;;;;;;;10.52;10.23;;;20.70;99.90;;;;;;6239503;23;20191;-80
2023/07/20 08:10:33;;;;;;;10.43;10.13;;;20.80;99.90;;;;;;6238367;23;20175;-80
2023/07/20 08:13:00;;;;;;;10.30;10.00;;;20.80;99.90;;;;;;6245714;23;20247;-80
2023/07/20 08:15:27;;;;;;;10.40;10.10;;;20.80;99.90;;;;;;6235961;22;20187;-81
2023/07/20 08:17:54;;;;;;;10.43;10.13;;;20.80;99.90;;;;;;6232157;23;20194;-80
2023/07/20 08:20:26;;;;;;;10.20;9.90;;;20.80;99.90;;;;;;6230677;23;20195;-80
2023/07/20 08:22:54;;;;;;;10.40;10.10;;;20.90;99.90;;;;;;6229415;23;20186;-80
2023/07/20 08:25:21;;;;;;;10.25;9.95;;;21.00;99.90;;;;;;6228864;22;20297;-80
2023/07/20 10:05:10;;;;;;;10.88;10.57;;;23.20;99.90;;;;;;6099826;23;20196;-90
2023/07/20 11:13:31;;;;;;;10.57;10.27;;;25.30;99.90;;;;;;6236347;22;20206;-89
2023/07/20 11:17:22;;;;;;;10.63;10.32;;;25.50;99.90;;;;;;6235681;22;20195;-91
2023/07/20 11:40:56;;;;;;;10.63;10.32;;;26.30;99.90;;;;;;6221869;22;20212;-91
2023/07/20 12:11:25;;;;;;;11.20;10.90;;;27.50;99.90;;;;;;6226047;22;20210;-89
2023/07/20 12:33:11;;;;;;;10.77;10.48;;;28.00;99.90;;;;;;5999403;23;20207;-93
2023/07/20 12:48:37;;;;;;;10.65;10.35;;;28.60;99.90;;;;;;5912934;23;20210;-83
2023/07/20 12:55:04;;;;;;;10.48;10.18;;;28.80;99.90;;;;;;6013488;23;20207;-84
2023/07/20 13:01:07;;;;;;;10.70;10.40;;;28.20;99.90;;;;;;6063009;23;20208;-86
2023/07/20 13:03:57;;;;;;;10.55;10.25;;;28.30;99.90;;;;;;6178090;23;20226;-91
2023/07/20 13:07:34;;;;;;;10.25;9.95;;;28.30;99.90;;;;;;6196303;23;20234;-85
2023/07/20 13:10:30;;;;;;;10.60;10.30;;;28.40;99.90;;;;;;6197611;23;20191;-89
2023/07/20 14:28:14;;;;;;;10.05;9.75;;;30.90;99.90;;;;;;6225208;22;20257;-80
2023/07/20 14:30:41;;;;;;;10.23;9.93;;;30.60;99.90;;;;;;6225157;22;20203;-82
2023/07/20 14:33:08;;;;;;;10.43;10.13;;;30.20;99.90;;;;;;6226229;23;20237;-81
2023/07/20 14:35:35;;;;;;;10.50;10.20;;;30.60;99.90;;;;;;6226062;23;20258;-80
2023/07/20 14:38:03;;;;;;;10.30;10.00;;;31.30;99.90;;;;;;6226916;22;20277;-80
2023/07/20 14:40:30;;;;;;;10.50;10.20;;;31.80;99.90;;;;;;6226205;23;20279;-82
2023/07/20 14:42:57;;;;;;;10.60;10.30;;;31.90;98.50;;;;;;6228080;23;20234;-80
2023/07/20 14:45:26;;;;;;;10.45;10.15;;;31.90;97.70;;;;;;6227948;23;20217;-82
2023/07/20 14:47:53;;;;;;;10.50;10.20;;;31.70;98.20;;;;;;6227240;23;20229;-81
2023/07/20 14:50:21;;;;;;;10.60;10.30;;;31.50;98.70;;;;;;6237849;22;20183;-81
2023/07/20 14:52:48;;;;;;;10.32;10.02;;;30.50;99.30;;;;;;6230191;22;20199;-81
2023/07/20 14:55:15;;;;;;;10.32;10.02;;;30.50;99.70;;;;;;6228703;23;20223;-81
2023/07/20 14:57:42;;;;;;;10.30;10.00;;;30.80;99.90;;;;;;6230456;22;20261;-82
2023/07/20 15:00:11;;;;;;;10.38;10.07;;;30.70;99.10;;;;;;6230200;23;20191;-82
2023/07/20 15:02:40;;;;;;;10.48;10.18;;;30.80;99.80;;;;;;6231415;23;20209;-82
2023/07/20 15:05:10;;;;;;;10.40;10.10;;;30.90;99.60;;;;;;6229511;22;20206;-82
2023/07/20 15:07:38;;;;;;;10.70;10.40;;;31.10;99.90;;;;;;6227579;22;20207;-81
2023/07/20 15:10:06;;;;;;;10.60;10.30;;;30.90;99.90;;;;;;6228358;22;20199;-81
2023/07/20 15:12:34;;;;;;;10.52;10.23;;;29.80;99.90;;;;;;6227829;23;20203;-81
2023/07/20 15:15:07;;;;;;;10.68;10.38;;;29.40;99.90;;;;;;6227518;23;20199;-81
2023/07/20 15:17:36;;;;;;;10.60;10.30;;;28.80;99.90;;;;;;6230909;22;20230;-81
2023/07/20 15:20:07;;;;;;;10.60;10.30;;;28.90;99.90;;;;;;6228645;23;20262;-82
2023/07/20 15:22:35;;;;;;;10.65;10.35;;;29.30;99.90;;;;;;6230285;22;20268;-81
2023/07/20 15:25:03;;;;;;;10.50;10.20;;;29.70;99.90;;;;;;6233586;23;20195;-81
2023/07/20 15:27:31;;;;;;;10.38;10.07;;;30.10;99.90;;;;;;6227757;22;20218;-80
2023/07/20 15:29:58;;;;;;;10.50;10.20;;;29.90;99.90;;;;;;6226310;23;20222;-80
2023/07/20 15:32:25;;;;;;;10.35;10.05;;;30.00;99.10;;;;;;6226894;23;20285;-81
2023/07/20 15:34:52;;;;;;;10.40;10.10;;;29.60;99.10;;;;;;6227497;23;20194;-81
2023/07/20 15:37:21;;;;;;;10.52;10.23;;;29.10;99.10;;;;;;6227363;22;20289;-80
2023/07/20 15:39:49;;;;;;;10.50;10.20;;;29.00;99.90;;;;;;6228266;23;20230;-81
2023/07/20 15:42:16;;;;;;;10.55;10.25;;;29.50;99.90;;;;;;6228490;23;20195;-81
2023/07/20 15:44:43;;;;;;;10.50;10.20;;;29.90;99.30;;;;;;6229088;23;20206;-82
2023/07/20 15:47:12;;;;;;;10.55;10.25;;;30.10;99.40;;;;;;6229532;22;20238;-80
2023/07/20 15:49:41;;;;;;;10.40;10.10;;;30.40;99.50;;;;;;6230584;23;20202;-81
2023/07/20 15:52:08;;;;;;;10.70;10.40;;;30.40;98.50;;;;;;6234042;23;20195;-81
2023/07/20 15:54:39;;;;;;;10.60;10.30;;;30.50;97.20;;;;;;6231229;23;20195;-82
2023/07/20 15:57:08;;;;;;;10.30;10.00;;;30.60;97.40;;;;;;6230144;22;20195;-80
2023/07/20 15:59:35;;;;;;;10.60;10.30;;;30.80;97.20;;;;;;6228243;23;20206;-81
2023/07/20 16:02:04;;;;;;;10.23;9.93;;;31.20;97.40;;;;;;6228010;23;20199;-82
2023/07/20 16:04:31;;;;;;;10.20;9.90;;;31.10;96.60;;;;;;6230191;23;20227;-82
2023/07/20 16:06:58;;;;;;;10.40;10.10;;;30.90;97.00;;;;;;6229477;22;20207;-82
2023/07/20 16:09:26;;;;;;;10.40;10.10;;;30.40;97.60;;;;;;6229991;23;20206;-82
2023/07/20 16:11:55;;;;;;;10.25;9.95;;;30.40;98.80;;;;;;6229207;23;20229;-80
2023/07/20 16:14:22;;;;;;;10.20;9.90;;;30.60;98.40;;;;;;6228930;23;20194;-81
2023/07/20 16:16:49;;;;;;;10.35;10.05;;;30.90;98.80;;;;;;6229266;23;20207;-80
2023/07/20 16:19:16;;;;;;;10.48;10.18;;;31.20;99.90;;;;;;6229128;22;20195;-80
2023/07/20 16:21:43;;;;;;;10.40;10.10;;;31.40;99.00;;;;;;6230291;23;20213;-82
2023/07/20 16:24:10;;;;;;;10.27;9.98;;;31.70;99.10;;;;;;6234006;22;20205;-81
2023/07/20 16:26:42;;;;;;;10.20;9.90;;;31.80;97.40;;;;;;6232867;23;20253;-80
2023/07/20 16:29:11;;;;;;;10.30;10.00;;;31.00;97.30;;;;;;6231127;22;20207;-82
2023/07/20 16:31:38;;;;;;;10.48;10.18;;;30.60;97.90;;;;;;6228932;23;20210;-81
2023/07/20 16:34:05;;;;;;;10.23;9.93;;;30.50;97.50;;;;;;6228713;23;20287;-81
2023/07/20 16:36:34;;;;;;;10.15;9.85;;;30.60;96.90;;;;;;6228881;23;20191;-81
2023/07/20 16:39:03;;;;;;;9.85;9.55;;;30.90;97.40;;;;;;6228020;22;20206;-82
2023/07/20 16:41:30;;;;;;;9.70;9.40;;;31.20;96.80;;;;;;6228536;22;20202;-82
2023/07/20 16:43:57;;;;;;;10.38;10.07;;;31.50;96.90;;;;;;6228157;23;20203;-81
2023/07/20 16:46:26;;;;;;;10.10;9.80;;;31.80;96.60;;;;;;6228843;22;20214;-82
2023/07/20 16:48:53;;;;;;;10.07;9.77;;;32.00;96.60;;;;;;6228297;22;20207;-81
2023/07/20 16:51:20;;;;;;;9.98;9.68;;;32.10;97.70;;;;;;6228191;23;20191;-81
2023/07/20 16:53:47;;;;;;;10.07;9.77;;;32.20;98.00;;;;;;6229634;23;20226;-82
2023/07/20 16:56:14;;;;;;;10.00;9.70;;;31.80;96.00;;;;;;6228556;23;20245;-81
2023/07/20 16:58:41;;;;;;;10.07;9.77;;;31.80;96.20;;;;;;6228926;22;20202;-80
2023/07/20 17:01:08;;;;;;;9.75;9.45;;;31.80;96.20;;;;;;6228394;23;20210;-81
2023/07/20 17:03:37;;;;;;;10.10;9.80;;;31.80;96.50;;;;;;6228461;23;20251;-81
2023/07/20 17:06:07;;;;;;;9.90;9.60;;;31.40;96.60;;;;;;6228197;23;20205;-82
2023/07/20 17:08:34;;;;;;;9.88;9.57;;;31.50;97.40;;;;;;6230394;22;20241;-80
2023/07/20 17:11:02;;;;;;;9.57;9.27;;;31.70;95.90;;;;;;6228819;23;20207;-81
2023/07/20 17:13:32;;;;;;;9.40;9.10;;;31.20;96.10;;;;;;6227024;22;20238;-81
2023/07/20 17:15:59;;;;;;;9.40;9.10;;;31.40;96.80;;;;;;6227231;23;20222;-81
2023/07/20 17:18:26;;;;;;;9.55;9.25;;;31.10;96.80;;;;;;6228516;22;20205;-81
2023/07/20 17:20:55;;;;;;;8.93;8.73;;;30.70;96.80;;;;;;6229765;23;20246;-81
2023/07/20 17:23:22;;;;;;;9.40;9.10;;;29.80;97.50;;;;;;6225127;23;20681;-82
2023/07/20 17:25:49;;;;;;;9.60;9.30;;;29.60;98.50;;;;;;6224431;23;20266;-81
2023/07/20 17:28:17;;;;;;;9.23;8.95;;;29.60;98.60;;;;;;6225486;22;20238;-82
2023/07/20 17:30:44;;;;;;;9.60;9.30;;;29.90;99.00;;;;;;6225146;23;20195;-82
2023/07/20 17:33:11;;;;;;;9.50;9.20;;;30.00;99.30;;;;;;6226637;23;20258;-81
2023/07/20 17:35:39;;;;;;;9.50;9.20;;;30.00;99.50;;;;;;6226345;23;20199;-81
2023/07/20 17:38:07;;;;;;;9.80;9.50;;;29.80;99.70;;;;;;6230239;22;20294;-82
2023/07/20 17:40:34;;;;;;;9.70;9.40;;;29.80;99.50;;;;;;6226555;23;20199;-83
2023/07/20 17:43:02;;;;;;;9.88;9.57;;;29.30;99.80;;;;;;6227937;23;20260;-81
2023/07/20 17:45:29;;;;;;;10.00;9.70;;;28.90;99.90;;;;;;6225134;23;20206;-81
2023/07/20 17:47:56;;;;;;;9.88;9.57;;;28.80;99.90;;;;;;6227647;22;20206;-81
2023/07/20 17:50:24;;;;;;;10.10;9.80;;;28.60;99.90;;;;;;6227157;23;20205;-81
2023/07/20 17:52:51;;;;;;;10.48;10.18;;;28.20;99.90;;;;;;6227042;23;20448;-81
2023/07/20 17:55:20;;;;;;;10.27;9.98;;;28.10;99.90;;;;;;6230061;23;20230;-81
2023/07/20 17:57:48;;;;;;;10.30;10.00;;;28.00;99.90;;;;;;6228293;22;20199;-79
2023/07/20 18:00:17;;;;;;;10.50;10.20;;;27.90;99.90;;;;;;6225903;22;20195;-80
2023/07/20 18:02:44;;;;;;;10.20;9.90;;;27.80;99.90;;;;;;6225333;23;20198;-79
2023/07/20 18:05:13;;;;;;;9.85;9.55;;;27.70;99.90;;;;;;6225390;23;20302;-80
2023/07/20 18:07:41;;;;;;;9.80;9.50;;;27.50;99.90;;;;;;6225153;22;20211;-79
2023/07/20 18:10:09;;;;;;;10.10;9.80;;;27.30;99.90;;;;;;6224812;23;20698;-79
2023/07/20 18:12:37;;;;;;;10.10;9.80;;;27.30;99.90;;;;;;6224415;22;20209;-79
2023/07/20 18:15:06;;;;;;;10.10;9.80;;;27.20;99.90;;;;;;6227065;23;20238;-80
2023/07/20 18:17:33;;;;;;;10.10;9.80;;;26.60;99.90;;;;;;6226901;22;20213;-79
2023/07/20 18:20:00;;;;;;;9.75;9.45;;;26.20;99.90;;;;;;6241636;23;20194;-79